sensor_id;sensor_type;location;lat;lon;timestamp;pressure;altitude;pressure_sealevel;temperature;humidity
9423;BME280;4750;49.506;10.400;2022-09-09T00:02:23;97645.69;;;11.21;85.78
9423;BME280;4750;49.506;10.400;2022-09-09T00:05:23;97645.72;;;11.13;85.71
9423;BME280;4750;49.506;10.400;2022-09-09T00:08:18;97635.41;;;11.08;85.74
9423;BME280;4750;49.506;10.400;2022-09-09T00:11:03;97664.56;;;11.28;86.06
9423;BME280;4750;49.506;10.400;2022-09-09T00:13:52;97636.59;;;10.97;85.93
9423;BME280;4750;49.506;10.400;2022-09-09T00:16:41;97640.56;;;10.79;85.85
9423;BME280;4750;49.506;10.400;2022-09-09T00:22:35;97648.13;;;11.25;86.38
9423;BME280;4750;49.506;10.400;2022-09-09T00:25:29;97660.28;;;11.19;86.03
9423;BME280;4750;49.506;10.400;2022-09-09T00:28:20;97636.75;;;10.99;86.16
9423;BME280;4750;49.506;10.400;2022-09-09T00:31:20;97637.53;;;10.92;86.03
9423;BME280;4750;49.506;10.400;2022-09-09T00:34:15;97656.91;;;11.21;86.44
9423;BME280;4750;49.506;10.400;2022-09-09T00:37:02;97622.75;;;10.92;86.26
9423;BME280;4750;49.506;10.400;2022-09-09T00:39:47;97648.00;;;10.99;86.12
9423;BME280;4750;49.506;10.400;2022-09-09T00:42:41;97650.75;;;11.15;86.37
9423;BME280;4750;49.506;10.400;2022-09-09T00:48:53;97644.91;;;11.28;86.46
9423;BME280;4750;49.506;10.400;2022-09-09T00:58:09;97643.75;;;12.13;87.17
9423;BME280;4750;49.506;10.400;2022-09-09T01:01:03;97625.84;;;12.26;87.12
9423;BME280;4750;49.506;10.400;2022-09-09T01:03:54;97651.28;;;12.61;86.84
9423;BME280;4750;49.506;10.400;2022-09-09T01:06:38;97635.53;;;12.57;86.59
9423;BME280;4750;49.506;10.400;2022-09-09T01:12:38;97638.88;;;12.81;85.74
9423;BME280;4750;49.506;10.400;2022-09-09T01:15:27;97658.19;;;13.02;84.99
9423;BME280;4750;49.506;10.400;2022-09-09T01:18:15;97627.03;;;12.83;84.58
9423;BME280;4750;49.506;10.400;2022-09-09T01:24:27;97642.94;;;13.05;83.89
9423;BME280;4750;49.506;10.400;2022-09-09T01:27:23;97630.53;;;13.08;83.33
9423;BME280;4750;49.506;10.400;2022-09-09T01:30:13;97628.69;;;13.03;82.96
9423;BME280;4750;49.506;10.400;2022-09-09T01:32:58;97649.91;;;13.22;82.91
9423;BME280;4750;49.506;10.400;2022-09-09T01:35:54;97644.03;;;13.10;82.44
9423;BME280;4750;49.506;10.400;2022-09-09T01:38:40;97624.72;;;12.89;82.29
9423;BME280;4750;49.506;10.400;2022-09-09T01:41:24;97627.03;;;12.83;82.13
9423;BME280;4750;49.506;10.400;2022-09-09T01:44:22;97633.16;;;12.89;82.03
9423;BME280;4750;49.506;10.400;2022-09-09T01:47:07;97657.44;;;13.19;82.05
9423;BME280;4750;49.506;10.400;2022-09-09T01:49:53;97620.09;;;13.01;81.52
9423;BME280;4750;49.506;10.400;2022-09-09T01:52:43;97621.06;;;12.96;81.15
9423;BME280;4750;49.506;10.400;2022-09-09T01:55:38;97640.47;;;13.09;81.02
9423;BME280;4750;49.506;10.400;2022-09-09T01:58:38;97636.91;;;13.09;81.22
9423;BME280;4750;49.506;10.400;2022-09-09T02:01:49;97645.44;;;13.19;81.10
9423;BME280;4750;49.506;10.400;2022-09-09T02:04:45;97619.31;;;13.01;80.80
9423;BME280;4750;49.506;10.400;2022-09-09T02:07:49;97621.50;;;13.10;80.87
9423;BME280;4750;49.506;10.400;2022-09-09T02:13:36;97623.22;;;13.23;80.30
9423;BME280;4750;49.506;10.400;2022-09-09T02:16:27;97649.31;;;13.41;80.00
9423;BME280;4750;49.506;10.400;2022-09-09T02:19:18;97620.56;;;13.25;79.66
9423;BME280;4750;49.506;10.400;2022-09-09T02:22:21;97620.41;;;13.23;79.63
9423;BME280;4750;49.506;10.400;2022-09-09T02:25:09;97604.00;;;13.12;79.74
9423;BME280;4750;49.506;10.400;2022-09-09T02:27:53;97641.88;;;13.36;79.72
9423;BME280;4750;49.506;10.400;2022-09-09T02:30:39;97659.13;;;13.40;79.88
9423;BME280;4750;49.506;10.400;2022-09-09T02:33:27;97620.56;;;13.25;79.63
9423;BME280;4750;49.506;10.400;2022-09-09T02:36:15;97640.69;;;13.56;79.60
9423;BME280;4750;49.506;10.400;2022-09-09T02:39:02;97666.72;;;13.65;79.22
9423;BME280;4750;49.506;10.400;2022-09-09T02:41:52;97633.84;;;13.50;79.16
9423;BME280;4750;49.506;10.400;2022-09-09T02:44:46;97633.00;;;13.57;78.73
9423;BME280;4750;49.506;10.400;2022-09-09T02:47:46;97661.63;;;13.81;78.36
9423;BME280;4750;49.506;10.400;2022-09-09T02:50:41;97646.56;;;13.68;78.06
9423;BME280;4750;49.506;10.400;2022-09-09T02:53:48;97629.16;;;13.62;78.37
9423;BME280;4750;49.506;10.400;2022-09-09T02:56:40;97635.50;;;13.80;78.39
9423;BME280;4750;49.506;10.400;2022-09-09T02:59:26;97641.19;;;13.90;78.33
9423;BME280;4750;49.506;10.400;2022-09-09T03:02:11;97638.53;;;13.92;78.21
9423;BME280;4750;49.506;10.400;2022-09-09T03:04:58;97634.28;;;14.01;78.09
9423;BME280;4750;49.506;10.400;2022-09-09T03:07:42;97625.00;;;13.90;77.78
9423;BME280;4750;49.506;10.400;2022-09-09T03:10:27;97608.34;;;13.85;77.50
9423;BME280;4750;49.506;10.400;2022-09-09T03:13:11;97622.34;;;13.92;76.99
9423;BME280;4750;49.506;10.400;2022-09-09T03:15:59;97611.47;;;13.89;76.99
9423;BME280;4750;49.506;10.400;2022-09-09T03:18:45;97615.59;;;13.78;76.85
9423;BME280;4750;49.506;10.400;2022-09-09T03:21:29;97640.66;;;14.01;77.04
9423;BME280;4750;49.506;10.400;2022-09-09T03:24:14;97633.41;;;13.81;76.93
9423;BME280;4750;49.506;10.400;2022-09-09T03:26:58;97605.72;;;13.69;76.96
9423;BME280;4750;49.506;10.400;2022-09-09T03:29:42;97606.66;;;13.72;77.37
9423;BME280;4750;49.506;10.400;2022-09-09T03:32:30;97608.56;;;13.69;77.47
9423;BME280;4750;49.506;10.400;2022-09-09T03:35:15;97607.75;;;13.59;77.69
9423;BME280;4750;49.506;10.400;2022-09-09T03:37:59;97606.06;;;13.46;77.86
9423;BME280;4750;49.506;10.400;2022-09-09T03:40:55;97613.25;;;13.39;78.01
9423;BME280;4750;49.506;10.400;2022-09-09T03:43:40;97612.28;;;13.27;78.37
9423;BME280;4750;49.506;10.400;2022-09-09T03:46:25;97626.31;;;13.35;78.84
9423;BME280;4750;49.506;10.400;2022-09-09T03:49:10;97599.53;;;13.08;79.04
9423;BME280;4750;49.506;10.400;2022-09-09T03:51:55;97596.78;;;13.01;79.42
9423;BME280;4750;49.506;10.400;2022-09-09T03:54:41;97614.13;;;12.97;79.71
9423;BME280;4750;49.506;10.400;2022-09-09T03:57:26;97623.22;;;13.05;79.86
9423;BME280;4750;49.506;10.400;2022-09-09T04:00:11;97613.13;;;12.85;80.07
9423;BME280;4750;49.506;10.400;2022-09-09T04:03:04;97615.34;;;12.86;80.13
9423;BME280;4750;49.506;10.400;2022-09-09T04:05:52;97623.22;;;13.05;80.48
9423;BME280;4750;49.506;10.400;2022-09-09T04:08:35;97608.31;;;12.78;80.46
9423;BME280;4750;49.506;10.400;2022-09-09T04:11:21;97609.97;;;12.81;80.93
9423;BME280;4750;49.506;10.400;2022-09-09T04:14:15;97616.84;;;12.87;81.03
9423;BME280;4750;49.506;10.400;2022-09-09T04:16:59;97616.59;;;12.93;81.02
9423;BME280;4750;49.506;10.400;2022-09-09T04:19:44;97612.78;;;12.81;81.19
9423;BME280;4750;49.506;10.400;2022-09-09T04:22:28;97600.19;;;12.82;81.24
9423;BME280;4750;49.506;10.400;2022-09-09T04:25:12;97604.66;;;12.85;81.42
9423;BME280;4750;49.506;10.400;2022-09-09T04:27:57;97626.78;;;13.06;81.11
9423;BME280;4750;49.506;10.400;2022-09-09T04:30:43;97610.72;;;12.99;80.94
9423;BME280;4750;49.506;10.400;2022-09-09T04:33:27;97626.78;;;13.06;80.35
9423;BME280;4750;49.506;10.400;2022-09-09T04:36:12;97635.84;;;13.04;80.09
9423;BME280;4750;49.506;10.400;2022-09-09T04:38:56;97632.84;;;13.02;79.82
9423;BME280;4750;49.506;10.400;2022-09-09T04:41:40;97636.50;;;13.13;79.34
9423;BME280;4750;49.506;10.400;2022-09-09T04:44:27;97630.88;;;13.13;79.51
9423;BME280;4750;49.506;10.400;2022-09-09T04:47:11;97654.03;;;13.21;79.03
9423;BME280;4750;49.506;10.400;2022-09-09T04:49:55;97629.34;;;12.94;78.96
9423;BME280;4750;49.506;10.400;2022-09-09T04:52:41;97646.66;;;13.08;78.85
9423;BME280;4750;49.506;10.400;2022-09-09T04:55:25;97641.13;;;13.00;79.04
9423;BME280;4750;49.506;10.400;2022-09-09T04:58:09;97659.69;;;13.21;79.12
9423;BME280;4750;49.506;10.400;2022-09-09T05:00:53;97630.69;;;13.11;79.01
9423;BME280;4750;49.506;10.400;2022-09-09T05:03:39;97634.41;;;13.13;79.13
9423;BME280;4750;49.506;10.400;2022-09-09T05:06:26;97637.97;;;13.14;78.93
9423;BME280;4750;49.506;10.400;2022-09-09T05:09:13;97634.22;;;13.11;79.05
9423;BME280;4750;49.506;10.400;2022-09-09T05:11:58;97658.50;;;13.24;79.27
9423;BME280;4750;49.506;10.400;2022-09-09T05:14:47;97643.59;;;13.14;79.41
9423;BME280;4750;49.506;10.400;2022-09-09T05:17:31;97679.94;;;13.45;79.29
9423;BME280;4750;49.506;10.400;2022-09-09T05:20:14;97654.22;;;13.40;79.04
9423;BME280;4750;49.506;10.400;2022-09-09T05:22:59;97660.19;;;13.45;78.66
9423;BME280;4750;49.506;10.400;2022-09-09T05:25:55;97689.78;;;13.53;78.70
9423;BME280;4750;49.506;10.400;2022-09-09T05:28:40;97666.00;;;13.47;78.44
9423;BME280;4750;49.506;10.400;2022-09-09T05:31:24;97670.31;;;13.65;78.57
9423;BME280;4750;49.506;10.400;2022-09-09T05:34:12;97671.69;;;13.74;78.45
9423;BME280;4750;49.506;10.400;2022-09-09T05:36:57;97689.94;;;14.00;78.07
9423;BME280;4750;49.506;10.400;2022-09-09T05:39:43;97685.06;;;14.01;77.39
9423;BME280;4750;49.506;10.400;2022-09-09T05:42:33;97696.75;;;14.24;77.05
9423;BME280;4750;49.506;10.400;2022-09-09T05:45:17;97683.25;;;14.23;77.02
9423;BME280;4750;49.506;10.400;2022-09-09T05:48:03;97664.38;;;14.25;76.59
9423;BME280;4750;49.506;10.400;2022-09-09T05:50:53;97682.25;;;14.65;76.82
9423;BME280;4750;49.506;10.400;2022-09-09T05:53:38;97694.94;;;16.21;76.72
9423;BME280;4750;49.506;10.400;2022-09-09T05:56:24;97669.81;;;16.99;72.86
9423;BME280;4750;49.506;10.400;2022-09-09T05:59:10;97682.13;;;17.91;70.37
9423;BME280;4750;49.506;10.400;2022-09-09T06:01:56;97689.44;;;19.61;66.13
9423;BME280;4750;49.506;10.400;2022-09-09T06:04:49;97686.69;;;21.52;58.03
9423;BME280;4750;49.506;10.400;2022-09-09T06:07:33;97674.25;;;22.53;53.74
9423;BME280;4750;49.506;10.400;2022-09-09T06:10:18;97690.13;;;22.40;49.97
9423;BME280;4750;49.506;10.400;2022-09-09T06:13:03;97680.41;;;20.70;50.74
9423;BME280;4750;49.506;10.400;2022-09-09T06:15:51;97700.00;;;19.09;54.40
9423;BME280;4750;49.506;10.400;2022-09-09T06:18:35;97678.22;;;18.67;57.09
9423;BME280;4750;49.506;10.400;2022-09-09T06:21:21;97640.56;;;17.40;58.76
9423;BME280;4750;49.506;10.400;2022-09-09T06:24:06;97690.97;;;17.30;60.68
9423;BME280;4750;49.506;10.400;2022-09-09T06:26:54;97676.63;;;18.28;62.71
9423;BME280;4750;49.506;10.400;2022-09-09T06:29:45;97659.81;;;20.72;59.38
9423;BME280;4750;49.506;10.400;2022-09-09T06:32:30;97667.03;;;22.52;53.32
9423;BME280;4750;49.506;10.400;2022-09-09T06:35:14;97662.97;;;23.93;49.17
9423;BME280;4750;49.506;10.400;2022-09-09T06:37:58;97677.34;;;23.77;46.30
9423;BME280;4750;49.506;10.400;2022-09-09T06:40:42;97681.81;;;22.78;47.76
9423;BME280;4750;49.506;10.400;2022-09-09T06:43:28;97671.03;;;22.45;48.84
9423;BME280;4750;49.506;10.400;2022-09-09T06:46:15;97673.28;;;22.80;48.10
9423;BME280;4750;49.506;10.400;2022-09-09T06:49:00;97672.19;;;22.72;48.17
9423;BME280;4750;49.506;10.400;2022-09-09T06:51:44;97656.84;;;22.17;48.57
9423;BME280;4750;49.506;10.400;2022-09-09T06:54:30;97677.13;;;21.47;50.79
9423;BME280;4750;49.506;10.400;2022-09-09T06:57:14;97645.00;;;20.61;52.02
9423;BME280;4750;49.506;10.400;2022-09-09T06:59:58;97670.28;;;20.27;54.24
9423;BME280;4750;49.506;10.400;2022-09-09T07:02:43;97679.63;;;20.02;55.26
9423;BME280;4750;49.506;10.400;2022-09-09T07:05:30;97688.13;;;19.51;56.06
9423;BME280;4750;49.506;10.400;2022-09-09T07:08:14;97676.13;;;19.03;57.02
9423;BME280;4750;49.506;10.400;2022-09-09T07:11:03;97685.91;;;18.76;57.92
9423;BME280;4750;49.506;10.400;2022-09-09T07:13:54;97690.84;;;18.40;58.33
9423;BME280;4750;49.506;10.400;2022-09-09T07:16:39;97691.81;;;18.33;58.75
9423;BME280;4750;49.506;10.400;2022-09-09T07:19:24;97681.53;;;18.16;59.34
9423;BME280;4750;49.506;10.400;2022-09-09T07:22:10;97685.16;;;18.40;59.46
9423;BME280;4750;49.506;10.400;2022-09-09T07:24:55;97671.81;;;18.54;59.01
9423;BME280;4750;49.506;10.400;2022-09-09T07:27:39;97691.09;;;19.03;58.79
9423;BME280;4750;49.506;10.400;2022-09-09T07:30:24;97681.38;;;19.32;57.97
9423;BME280;4750;49.506;10.400;2022-09-09T07:33:09;97696.03;;;19.52;57.08
9423;BME280;4750;49.506;10.400;2022-09-09T07:39:09;97696.28;;;19.56;58.04
9423;BME280;4750;49.506;10.400;2022-09-09T07:41:55;97695.66;;;19.58;58.38
9423;BME280;4750;49.506;10.400;2022-09-09T07:44:40;97676.53;;;19.35;58.54
9423;BME280;4750;49.506;10.400;2022-09-09T07:47:28;97672.00;;;19.30;58.81
9423;BME280;4750;49.506;10.400;2022-09-09T07:50:12;97678.41;;;19.30;59.15
9423;BME280;4750;49.506;10.400;2022-09-09T07:52:57;97705.94;;;19.51;59.06
9423;BME280;4750;49.506;10.400;2022-09-09T07:55:42;97680.59;;;19.43;58.95
9423;BME280;4750;49.506;10.400;2022-09-09T07:58:27;97706.72;;;19.77;59.07
9423;BME280;4750;49.506;10.400;2022-09-09T08:01:17;97698.00;;;20.13;58.81
9423;BME280;4750;49.506;10.400;2022-09-09T08:04:04;97687.06;;;19.95;57.93
9423;BME280;4750;49.506;10.400;2022-09-09T08:06:52;97705.88;;;20.40;57.56
9423;BME280;4750;49.506;10.400;2022-09-09T08:09:41;97690.06;;;20.37;56.83
9423;BME280;4750;49.506;10.400;2022-09-09T08:12:32;97699.41;;;20.79;56.66
9423;BME280;4750;49.506;10.400;2022-09-09T08:15:16;97681.13;;;20.71;55.56
9423;BME280;4750;49.506;10.400;2022-09-09T08:18:01;97694.31;;;20.64;55.39
9423;BME280;4750;49.506;10.400;2022-09-09T08:20:46;97687.78;;;20.89;55.47
9423;BME280;4750;49.506;10.400;2022-09-09T08:23:30;97669.16;;;21.30;54.81
9423;BME280;4750;49.506;10.400;2022-09-09T08:26:16;97708.53;;;21.47;53.70
9423;BME280;4750;49.506;10.400;2022-09-09T08:29:04;97714.50;;;21.81;52.97
9423;BME280;4750;49.506;10.400;2022-09-09T08:31:54;97702.34;;;21.81;51.97
9423;BME280;4750;49.506;10.400;2022-09-09T08:34:39;97709.16;;;21.46;51.21
9423;BME280;4750;49.506;10.400;2022-09-09T08:37:28;97699.31;;;20.91;52.07
9423;BME280;4750;49.506;10.400;2022-09-09T08:40:21;97699.19;;;20.89;52.47
9423;BME280;4750;49.506;10.400;2022-09-09T08:43:09;97707.53;;;21.13;52.99
9423;BME280;4750;49.506;10.400;2022-09-09T08:46:02;97688.53;;;21.04;52.59
9423;BME280;4750;49.506;10.400;2022-09-09T08:48:56;97717.78;;;21.18;51.80
9423;BME280;4750;49.506;10.400;2022-09-09T08:51:42;97697.09;;;20.90;52.67
9423;BME280;4750;49.506;10.400;2022-09-09T08:54:31;97720.44;;;20.86;52.60
9423;BME280;4750;49.506;10.400;2022-09-09T08:57:26;97675.25;;;20.41;52.79
9423;BME280;4750;49.506;10.400;2022-09-09T09:00:11;97694.81;;;20.60;52.95
9423;BME280;4750;49.506;10.400;2022-09-09T09:06:06;97729.31;;;20.92;52.12
9423;BME280;4750;49.506;10.400;2022-09-09T09:11:57;97715.06;;;20.92;52.23
9423;BME280;4750;49.506;10.400;2022-09-09T09:14:49;97701.69;;;20.55;52.96
9423;BME280;4750;49.506;10.400;2022-09-09T09:17:34;97694.53;;;21.10;52.52
9423;BME280;4750;49.506;10.400;2022-09-09T09:20:49;97700.59;;;21.60;50.77
9423;BME280;4750;49.506;10.400;2022-09-09T09:23:56;97667.63;;;21.57;49.84
9423;BME280;4750;49.506;10.400;2022-09-09T09:26:42;97701.94;;;21.73;49.30
9423;BME280;4750;49.506;10.400;2022-09-09T09:29:27;97687.06;;;21.90;48.99
9423;BME280;4750;49.506;10.400;2022-09-09T09:32:16;97662.75;;;22.05;49.08
9423;BME280;4750;49.506;10.400;2022-09-09T09:35:09;97696.59;;;22.11;48.88
9423;BME280;4750;49.506;10.400;2022-09-09T09:37:55;97684.63;;;22.14;48.66
9423;BME280;4750;49.506;10.400;2022-09-09T09:40:49;97699.69;;;22.79;48.50
9423;BME280;4750;49.506;10.400;2022-09-09T09:43:36;97696.34;;;23.00;47.50
9423;BME280;4750;49.506;10.400;2022-09-09T09:46:24;97696.16;;;23.12;46.50
9423;BME280;4750;49.506;10.400;2022-09-09T09:49:11;97688.25;;;22.79;46.30
9423;BME280;4750;49.506;10.400;2022-09-09T09:52:02;97678.97;;;22.96;46.28
9423;BME280;4750;49.506;10.400;2022-09-09T09:54:48;97678.81;;;22.92;46.24
9423;BME280;4750;49.506;10.400;2022-09-09T09:57:33;97671.38;;;23.19;45.90
9423;BME280;4750;49.506;10.400;2022-09-09T10:00:22;97675.19;;;23.42;45.17
9423;BME280;4750;49.506;10.400;2022-09-09T10:03:25;97662.34;;;23.43;45.32
9423;BME280;4750;49.506;10.400;2022-09-09T10:06:11;97665.84;;;23.23;45.13
9423;BME280;4750;49.506;10.400;2022-09-09T10:08:55;97652.03;;;23.01;46.15
9423;BME280;4750;49.506;10.400;2022-09-09T10:11:44;97677.78;;;23.01;46.21
9423;BME280;4750;49.506;10.400;2022-09-09T10:14:39;97681.94;;;22.98;46.51
9423;BME280;4750;49.506;10.400;2022-09-09T10:17:44;97660.53;;;22.99;45.79
9423;BME280;4750;49.506;10.400;2022-09-09T10:20:54;97688.53;;;22.53;45.96
9423;BME280;4750;49.506;10.400;2022-09-09T10:24:05;97650.41;;;22.00;46.92
9423;BME280;4750;49.506;10.400;2022-09-09T10:27:16;97657.50;;;22.15;47.28
9423;BME280;4750;49.506;10.400;2022-09-09T10:35:50;97638.44;;;21.01;47.95
9423;BME280;4750;49.506;10.400;2022-09-09T10:38:40;97674.78;;;21.14;48.47
9423;BME280;4750;49.506;10.400;2022-09-09T10:45:13;97672.78;;;21.17;48.36
9423;BME280;4750;49.506;10.400;2022-09-09T10:51:00;97658.47;;;22.36;47.28
9423;BME280;4750;49.506;10.400;2022-09-09T10:54:02;97621.91;;;22.66;44.80
9423;BME280;4750;49.506;10.400;2022-09-09T10:56:55;97639.03;;;22.48;44.85
9423;BME280;4750;49.506;10.400;2022-09-09T10:59:45;97654.56;;;22.13;45.60
9423;BME280;4750;49.506;10.400;2022-09-09T11:02:33;97649.88;;;22.20;45.81
9423;BME280;4750;49.506;10.400;2022-09-09T11:05:27;97639.44;;;22.11;44.93
9423;BME280;4750;49.506;10.400;2022-09-09T11:08:17;97649.31;;;22.08;45.54
9423;BME280;4750;49.506;10.400;2022-09-09T11:11:16;97637.50;;;21.99;45.42
9423;BME280;4750;49.506;10.400;2022-09-09T11:14:11;97630.13;;;22.26;45.30
9423;BME280;4750;49.506;10.400;2022-09-09T11:17:04;97603.44;;;22.69;44.54
9423;BME280;4750;49.506;10.400;2022-09-09T11:19:51;97634.84;;;23.35;43.67
9423;BME280;4750;49.506;10.400;2022-09-09T11:22:55;97634.44;;;23.79;40.21
9423;BME280;4750;49.506;10.400;2022-09-09T11:25:44;97635.34;;;23.84;40.10
9423;BME280;4750;49.506;10.400;2022-09-09T11:28:39;97639.03;;;23.68;40.21
9423;BME280;4750;49.506;10.400;2022-09-09T11:31:44;97641.75;;;22.78;40.89
9423;BME280;4750;49.506;10.400;2022-09-09T11:40:26;97663.09;;;21.38;50.41
9423;BME280;4750;49.506;10.400;2022-09-09T11:43:19;97661.72;;;20.81;53.12
9423;BME280;4750;49.506;10.400;2022-09-09T11:46:05;97599.63;;;19.98;54.86
9423;BME280;4750;49.506;10.400;2022-09-09T11:48:59;97653.94;;;19.88;56.69
9423;BME280;4750;49.506;10.400;2022-09-09T11:51:44;97662.91;;;19.45;59.18
9423;BME280;4750;49.506;10.400;2022-09-09T11:54:47;97677.97;;;18.86;61.96
9423;BME280;4750;49.506;10.400;2022-09-09T11:57:35;97698.09;;;17.86;66.05
9423;BME280;4750;49.506;10.400;2022-09-09T12:00:38;97706.50;;;17.29;69.00
9423;BME280;4750;49.506;10.400;2022-09-09T12:03:40;97709.59;;;17.11;71.77
9423;BME280;4750;49.506;10.400;2022-09-09T12:06:31;97683.94;;;17.09;71.77
9423;BME280;4750;49.506;10.400;2022-09-09T12:09:31;97704.09;;;17.68;72.13
9423;BME280;4750;49.506;10.400;2022-09-09T12:17:54;97696.56;;;18.87;71.28
9423;BME280;4750;49.506;10.400;2022-09-09T12:20:39;97676.75;;;18.78;70.85
9423;BME280;4750;49.506;10.400;2022-09-09T12:23:52;97686.25;;;19.55;70.20
9423;BME280;4750;49.506;10.400;2022-09-09T12:32:26;97688.03;;;20.40;63.61
9423;BME280;4750;49.506;10.400;2022-09-09T12:35:20;97669.53;;;20.27;60.80
9423;BME280;4750;49.506;10.400;2022-09-09T12:38:05;97672.03;;;20.60;59.82
9423;BME280;4750;49.506;10.400;2022-09-09T12:40:58;97669.50;;;20.80;58.34
9423;BME280;4750;49.506;10.400;2022-09-09T12:43:42;97676.78;;;21.11;57.41
9423;BME280;4750;49.506;10.400;2022-09-09T12:46:33;97643.06;;;21.08;53.97
9423;BME280;4750;49.506;10.400;2022-09-09T12:49:34;97657.13;;;21.61;53.74
9423;BME280;4750;49.506;10.400;2022-09-09T12:52:27;97646.16;;;21.42;54.06
9423;BME280;4750;49.506;10.400;2022-09-09T12:55:35;97664.66;;;21.11;53.21
9423;BME280;4750;49.506;10.400;2022-09-09T12:58:20;97636.31;;;20.59;53.17
9423;BME280;4750;49.506;10.400;2022-09-09T13:01:05;97659.03;;;20.57;52.70
9423;BME280;4750;49.506;10.400;2022-09-09T13:06:33;97652.25;;;20.51;51.75
9423;BME280;4750;49.506;10.400;2022-09-09T13:09:19;97650.41;;;20.69;52.06
9423;BME280;4750;49.506;10.400;2022-09-09T13:12:04;97645.34;;;21.39;52.24
9423;BME280;4750;49.506;10.400;2022-09-09T13:14:53;97626.72;;;21.38;51.01
9423;BME280;4750;49.506;10.400;2022-09-09T13:17:37;97608.59;;;21.47;50.18
9423;BME280;4750;49.506;10.400;2022-09-09T13:20:23;97655.22;;;22.12;51.18
9423;BME280;4750;49.506;10.400;2022-09-09T13:23:11;97646.66;;;22.60;49.63
9423;BME280;4750;49.506;10.400;2022-09-09T13:26:23;97647.75;;;23.18;48.23
9423;BME280;4750;49.506;10.400;2022-09-09T13:29:16;97628.28;;;22.65;47.36
9423;BME280;4750;49.506;10.400;2022-09-09T13:32:07;97642.81;;;21.91;48.28
9423;BME280;4750;49.506;10.400;2022-09-09T13:35:00;97640.63;;;21.60;49.87
9423;BME280;4750;49.506;10.400;2022-09-09T13:37:45;97612.78;;;21.30;49.46
9423;BME280;4750;49.506;10.400;2022-09-09T13:40:29;97613.78;;;21.51;50.22
9423;BME280;4750;49.506;10.400;2022-09-09T13:43:19;97635.03;;;22.08;50.85
9423;BME280;4750;49.506;10.400;2022-09-09T13:46:33;97634.22;;;22.53;49.50
9423;BME280;4750;49.506;10.400;2022-09-09T13:49:21;97628.22;;;22.63;48.46
9423;BME280;4750;49.506;10.400;2022-09-09T13:52:14;97626.78;;;21.84;47.41
9423;BME280;4750;49.506;10.400;2022-09-09T13:55:02;97609.44;;;21.20;47.68
9423;BME280;4750;49.506;10.400;2022-09-09T13:58:01;97637.91;;;21.48;48.27
9423;BME280;4750;49.506;10.400;2022-09-09T14:00:45;97621.88;;;21.41;48.55
9423;BME280;4750;49.506;10.400;2022-09-09T14:03:30;97612.22;;;21.18;48.79
9423;BME280;4750;49.506;10.400;2022-09-09T14:06:15;97631.75;;;21.67;49.74
9423;BME280;4750;49.506;10.400;2022-09-09T14:08:58;97625.38;;;21.69;48.72
9423;BME280;4750;49.506;10.400;2022-09-09T14:11:44;97637.72;;;21.44;50.03
9423;BME280;4750;49.506;10.400;2022-09-09T14:14:29;97627.56;;;20.97;49.73
9423;BME280;4750;49.506;10.400;2022-09-09T14:17:13;97630.44;;;20.69;50.83
9423;BME280;4750;49.506;10.400;2022-09-09T14:19:58;97632.53;;;20.96;51.09
9423;BME280;4750;49.506;10.400;2022-09-09T14:22:42;97627.09;;;21.60;50.66
9423;BME280;4750;49.506;10.400;2022-09-09T14:25:26;97620.47;;;21.42;49.30
9423;BME280;4750;49.506;10.400;2022-09-09T14:28:12;97619.91;;;21.29;48.89
9423;BME280;4750;49.506;10.400;2022-09-09T14:30:59;97605.97;;;21.08;49.06
9423;BME280;4750;49.506;10.400;2022-09-09T14:33:44;97597.38;;;20.50;48.71
9423;BME280;4750;49.506;10.400;2022-09-09T14:36:28;97614.56;;;20.52;48.85
9423;BME280;4750;49.506;10.400;2022-09-09T14:39:12;97587.66;;;20.27;49.37
9423;BME280;4750;49.506;10.400;2022-09-09T14:41:56;97607.19;;;20.47;50.16
9423;BME280;4750;49.506;10.400;2022-09-09T14:44:40;97618.59;;;20.47;50.48
9423;BME280;4750;49.506;10.400;2022-09-09T14:47:24;97589.75;;;20.13;50.28
9423;BME280;4750;49.506;10.400;2022-09-09T14:50:10;97599.38;;;20.47;50.44
9423;BME280;4750;49.506;10.400;2022-09-09T14:52:55;97548.63;;;20.30;49.80
9423;BME280;4750;49.506;10.400;2022-09-09T14:55:39;97620.06;;;21.04;49.29
9423;BME280;4750;49.506;10.400;2022-09-09T14:58:23;97592.94;;;21.62;48.12
9423;BME280;4750;49.506;10.400;2022-09-09T15:01:10;97601.94;;;22.18;46.32
9423;BME280;4750;49.506;10.400;2022-09-09T15:03:56;97608.66;;;22.25;45.75
9423;BME280;4750;49.506;10.400;2022-09-09T15:06:42;97603.78;;;22.12;44.96
9423;BME280;4750;49.506;10.400;2022-09-09T15:09:27;97605.63;;;22.53;44.47
9423;BME280;4750;49.506;10.400;2022-09-09T15:12:11;97594.78;;;22.67;43.56
9423;BME280;4750;49.506;10.400;2022-09-09T15:14:56;97575.66;;;22.88;43.54
9423;BME280;4750;49.506;10.400;2022-09-09T15:17:39;97511.13;;;22.33;42.27
9423;BME280;4750;49.506;10.400;2022-09-09T15:20:24;97600.16;;;22.59;42.34
9423;BME280;4750;49.506;10.400;2022-09-09T15:23:08;97596.69;;;22.45;43.38
9423;BME280;4750;49.506;10.400;2022-09-09T15:25:53;97603.69;;;22.26;43.99
9423;BME280;4750;49.506;10.400;2022-09-09T15:28:38;97587.09;;;22.22;44.33
9423;BME280;4750;49.506;10.400;2022-09-09T15:31:26;97598.63;;;22.24;44.12
9423;BME280;4750;49.506;10.400;2022-09-09T15:34:12;97579.41;;;21.49;44.14
9423;BME280;4750;49.506;10.400;2022-09-09T15:36:57;97568.88;;;21.08;45.01
9423;BME280;4750;49.506;10.400;2022-09-09T15:39:41;97586.19;;;20.68;45.53
9423;BME280;4750;49.506;10.400;2022-09-09T15:42:25;97583.84;;;20.51;45.65
9423;BME280;4750;49.506;10.400;2022-09-09T15:45:09;97632.00;;;20.58;46.29
9423;BME280;4750;49.506;10.400;2022-09-09T15:47:53;97620.13;;;20.08;48.79
9423;BME280;4750;49.506;10.400;2022-09-09T15:50:37;97629.78;;;19.89;50.73
9423;BME280;4750;49.506;10.400;2022-09-09T15:53:21;97632.28;;;19.57;51.64
9423;BME280;4750;49.506;10.400;2022-09-09T15:56:06;97648.91;;;19.49;52.35
9423;BME280;4750;49.506;10.400;2022-09-09T15:58:54;97635.09;;;19.32;53.12
9423;BME280;4750;49.506;10.400;2022-09-09T16:01:39;97625.47;;;19.25;53.40
9423;BME280;4750;49.506;10.400;2022-09-09T16:04:24;97615.41;;;18.86;53.34
9423;BME280;4750;49.506;10.400;2022-09-09T16:07:08;97620.75;;;18.80;53.81
9423;BME280;4750;49.506;10.400;2022-09-09T16:09:52;97626.19;;;18.76;53.83